createdAt,value
2018-05-23T00:02:27.109Z,14.71
2018-05-23T00:05:32.226Z,14.68
2018-05-23T00:08:35.478Z,14.56
2018-05-23T00:11:38.762Z,14.55
2018-05-23T00:14:42.015Z,14.56
2018-05-23T00:17:45.283Z,14.52
2018-05-23T00:20:48.553Z,14.27
2018-05-23T00:23:51.823Z,13.98
2018-05-23T00:26:55.103Z,14.12
2018-05-23T00:29:58.375Z,13.99
2018-05-23T00:33:02.406Z,13.94
2018-05-23T00:36:05.693Z,13.91
2018-05-23T00:39:09.702Z,13.95
2018-05-23T00:42:13.777Z,13.83
2018-05-23T00:45:17.054Z,13.75
2018-05-23T00:48:20.311Z,13.80
2018-05-23T00:51:24.334Z,13.77
2018-05-23T00:54:28.355Z,13.76
2018-05-23T00:57:32.373Z,13.75
2018-05-23T01:00:35.662Z,13.66
2018-05-23T01:03:39.675Z,13.67
2018-05-23T01:06:43.795Z,13.64
2018-05-23T01:09:47.909Z,13.64
2018-05-23T01:12:51.224Z,13.59
2018-05-23T01:15:54.493Z,13.50
2018-05-23T01:18:58.572Z,13.34
2018-05-23T01:22:01.829Z,13.39
2018-05-23T01:25:05.087Z,13.41
2018-05-23T01:28:08.353Z,13.42
2018-05-23T01:31:11.617Z,13.27
2018-05-23T01:34:14.894Z,13.30
2018-05-23T01:37:18.918Z,13.30
2018-05-23T01:40:22.941Z,13.27
2018-05-23T01:43:26.222Z,13.28
2018-05-23T01:46:29.512Z,13.31
2018-05-23T01:49:32.754Z,13.33
2018-05-23T01:52:36.009Z,13.33
2018-05-23T01:55:40.029Z,13.36
2018-05-23T01:58:44.156Z,13.42
2018-05-23T02:01:48.222Z,13.49
2018-05-23T02:04:51.476Z,13.50
2018-05-23T02:07:54.751Z,13.19
2018-05-23T02:10:58.901Z,13.21
2018-05-23T02:14:02.154Z,13.27
2018-05-23T02:17:05.415Z,13.34
2018-05-23T02:20:08.802Z,13.23
2018-05-23T02:23:12.083Z,13.35
2018-05-23T02:26:15.350Z,13.44
2018-05-23T02:29:19.411Z,13.41
2018-05-23T02:32:22.679Z,13.47
2018-05-23T02:35:25.945Z,13.54
2018-05-23T02:38:29.208Z,13.66
2018-05-23T02:41:32.685Z,13.59
2018-05-23T02:44:35.982Z,13.43
2018-05-23T02:47:39.284Z,13.40
2018-05-23T02:50:42.547Z,13.44
2018-05-23T02:53:45.807Z,13.47
2018-05-23T02:56:49.102Z,13.49
2018-05-23T02:59:52.363Z,13.52
2018-05-23T03:02:56.470Z,13.34
2018-05-23T03:05:59.668Z,13.30
2018-05-23T03:09:03.697Z,13.30
2018-05-23T03:12:06.986Z,13.29
2018-05-23T03:15:11.094Z,13.28
2018-05-23T03:18:15.155Z,13.18
2018-05-23T03:21:18.472Z,13.20
2018-05-23T03:24:21.814Z,13.17
2018-05-23T03:27:25.179Z,13.09
2018-05-23T03:30:29.159Z,13.07
2018-05-23T03:33:32.513Z,13.13
2018-05-23T03:36:36.101Z,13.12
2018-05-23T03:39:39.361Z,13.09
2018-05-23T03:42:42.628Z,13.11
2018-05-23T03:45:45.886Z,13.10
2018-05-23T03:48:49.170Z,13.08
2018-05-23T03:51:52.444Z,13.12
2018-05-23T03:54:55.694Z,13.12
2018-05-23T03:57:58.969Z,13.09
2018-05-23T04:01:20.087Z,13.20
2018-05-23T04:04:41.093Z,13.20
2018-05-23T04:07:45.173Z,13.37
2018-05-23T04:10:48.452Z,13.55
2018-05-23T04:13:52.480Z,13.65
2018-05-23T04:16:55.730Z,13.65
2018-05-23T04:19:59.033Z,13.50
2018-05-23T04:23:02.294Z,13.71
2018-05-23T04:26:05.557Z,13.87
2018-05-23T04:29:08.862Z,14.08
2018-05-23T04:32:12.109Z,14.19
2018-05-23T04:35:15.367Z,14.14
2018-05-23T04:38:18.955Z,14.20
2018-05-23T04:41:23.014Z,14.17
2018-05-23T04:44:26.310Z,14.18
2018-05-23T04:47:29.833Z,14.25
2018-05-23T04:50:33.326Z,14.34
2018-05-23T04:53:36.598Z,14.63
2018-05-23T04:56:39.898Z,14.75
2018-05-23T04:59:43.182Z,14.68
2018-05-23T05:02:46.469Z,14.81
2018-05-23T05:05:49.734Z,14.85
2018-05-23T05:08:53.882Z,15.06
2018-05-23T05:11:57.149Z,15.18
2018-05-23T05:15:01.221Z,15.11
2018-05-23T05:18:04.571Z,15.41
2018-05-23T05:21:08.154Z,15.65
2018-05-23T05:24:11.899Z,15.90
2018-05-23T05:27:16.422Z,16.08
2018-05-23T05:30:19.785Z,16.27
2018-05-23T05:33:28.333Z,16.33
2018-05-23T05:36:33.428Z,17.03
2018-05-23T05:39:36.683Z,16.87
2018-05-23T05:42:41.510Z,16.88
2018-05-23T05:45:45.534Z,17.20
2018-05-23T05:48:49.594Z,17.77
2018-05-23T05:51:52.845Z,17.74
2018-05-23T05:54:56.152Z,18.12
2018-05-23T05:57:59.730Z,18.41
2018-05-23T06:01:04.102Z,18.90
2018-05-23T06:04:07.362Z,19.73
2018-05-23T06:07:11.562Z,19.33
2018-05-23T06:10:15.149Z,20.23
2018-05-23T06:13:18.905Z,21.15
2018-05-23T06:16:24.317Z,21.48
2018-05-23T06:19:27.699Z,22.55
2018-05-23T06:22:31.038Z,21.94
2018-05-23T06:25:35.080Z,21.52
2018-05-23T06:28:38.377Z,21.76
2018-05-23T06:31:41.675Z,21.13
2018-05-23T06:34:44.946Z,21.58
2018-05-23T06:37:48.981Z,20.57
2018-05-23T06:40:52.255Z,20.21
2018-05-23T06:43:56.284Z,21.44
2018-05-23T06:47:00.316Z,22.62
2018-05-23T06:50:04.605Z,21.62
2018-05-23T06:53:07.798Z,22.45
2018-05-23T06:56:11.235Z,21.72
2018-05-23T06:59:14.524Z,21.91
2018-05-23T07:02:17.794Z,22.60
2018-05-23T07:05:21.212Z,22.72
2018-05-23T07:08:25.239Z,21.83
2018-05-23T07:11:28.517Z,21.96
2018-05-23T07:14:32.642Z,22.17
2018-05-23T07:17:36.666Z,23.04
2018-05-23T07:20:39.942Z,23.03
2018-05-23T07:23:43.190Z,23.37
2018-05-23T07:26:46.450Z,23.34
2018-05-23T07:29:49.713Z,22.93
2018-05-23T07:32:53.046Z,23.08
2018-05-23T07:35:56.318Z,22.10
2018-05-23T07:38:59.587Z,22.50
2018-05-23T07:42:02.843Z,22.24
2018-05-23T07:45:06.105Z,20.48
2018-05-23T07:48:09.358Z,19.22
2018-05-23T07:51:12.676Z,20.28
2018-05-23T07:54:15.929Z,21.41
2018-05-23T07:57:20.027Z,20.65
2018-05-23T08:00:24.158Z,20.64
2018-05-23T08:03:28.489Z,21.49
2018-05-23T08:06:31.971Z,22.16
2018-05-23T08:09:35.986Z,21.64
2018-05-23T08:12:40.112Z,20.81
2018-05-23T08:15:44.145Z,21.63
2018-05-23T08:18:47.417Z,19.85
2018-05-23T08:21:51.459Z,20.20
2018-05-23T08:24:54.727Z,20.90
2018-05-23T08:27:58.751Z,21.77
2018-05-23T08:31:02.051Z,21.39
2018-05-23T08:34:06.071Z,21.02
2018-05-23T08:37:09.372Z,21.62
2018-05-23T08:40:12.632Z,21.95
2018-05-23T08:43:15.933Z,21.56
2018-05-23T08:46:19.283Z,21.67
2018-05-23T08:49:22.557Z,21.10
2018-05-23T08:52:25.822Z,21.48
2018-05-23T08:55:29.846Z,21.47
2018-05-23T08:58:33.856Z,21.63
2018-05-23T09:01:37.889Z,21.63
2018-05-23T09:04:41.967Z,21.03
2018-05-23T09:07:45.186Z,20.41
2018-05-23T09:10:48.529Z,20.44
2018-05-23T09:13:51.788Z,21.76
2018-05-23T09:16:55.817Z,22.35
2018-05-23T09:19:59.213Z,22.50
2018-05-23T09:23:03.234Z,23.21
2018-05-23T09:26:06.509Z,23.02
2018-05-23T09:29:10.540Z,23.26
2018-05-23T09:32:13.798Z,21.65
2018-05-23T09:35:17.130Z,21.48
2018-05-23T09:38:20.453Z,21.37
2018-05-23T09:41:24.590Z,21.79
2018-05-23T09:44:27.970Z,22.40
2018-05-23T09:47:31.231Z,21.84
2018-05-23T09:50:34.502Z,21.01
2018-05-23T09:53:37.761Z,21.46
2018-05-23T09:56:41.786Z,21.33
2018-05-23T09:59:45.049Z,22.05
2018-05-23T10:02:49.065Z,22.88
2018-05-23T10:05:53.089Z,21.95
2018-05-23T10:08:57.122Z,21.60
2018-05-23T10:12:00.376Z,21.37
2018-05-23T10:15:04.448Z,21.44
2018-05-23T10:18:07.705Z,21.95
2018-05-23T10:21:10.987Z,21.81
2018-05-23T10:24:14.268Z,22.02
2018-05-23T10:27:17.534Z,22.53
2018-05-23T10:30:20.798Z,22.49
2018-05-23T10:33:24.885Z,21.92
2018-05-23T10:36:28.942Z,22.21
2018-05-23T10:39:32.957Z,22.60
2018-05-23T10:42:37.012Z,22.49
2018-05-23T10:45:40.284Z,22.95
2018-05-23T10:48:43.546Z,22.18
2018-05-23T10:51:47.609Z,21.94
2018-05-23T10:54:51.603Z,21.68
2018-05-23T10:57:54.911Z,21.50
2018-05-23T11:00:58.972Z,21.79
2018-05-23T11:04:02.228Z,21.53
2018-05-23T11:07:06.437Z,21.53
2018-05-23T11:10:10.492Z,21.74
2018-05-23T11:13:13.780Z,22.33
2018-05-23T11:16:17.087Z,22.22
2018-05-23T11:19:20.333Z,22.34
2018-05-23T11:22:23.673Z,22.24
2018-05-23T11:25:26.983Z,22.50
2018-05-23T11:28:30.266Z,22.20
2018-05-23T11:31:33.521Z,22.05
2018-05-23T11:34:36.773Z,21.88
2018-05-23T11:37:40.065Z,22.02
2018-05-23T11:40:43.343Z,21.73
2018-05-23T11:43:47.459Z,22.44
2018-05-23T11:46:51.504Z,22.63
2018-05-23T11:49:54.778Z,22.63
2018-05-23T11:52:58.038Z,23.11
2018-05-23T11:56:01.306Z,22.44
2018-05-23T11:59:04.645Z,22.32
2018-05-23T12:02:08.069Z,22.33
2018-05-23T12:05:12.182Z,22.04
2018-05-23T12:08:16.220Z,21.99
2018-05-23T12:11:20.215Z,22.59
2018-05-23T12:14:24.331Z,22.32
2018-05-23T12:17:28.354Z,22.53
2018-05-23T12:20:32.571Z,22.84
2018-05-23T12:23:36.029Z,23.09
2018-05-23T12:26:39.744Z,23.63
2018-05-23T12:29:42.997Z,23.62
2018-05-23T12:32:46.268Z,23.50
2018-05-23T12:35:49.581Z,23.65
2018-05-23T12:38:52.860Z,23.40
2018-05-23T12:41:56.989Z,23.24
2018-05-23T12:45:00.261Z,23.27
2018-05-23T12:48:04.302Z,23.21
2018-05-23T12:51:07.575Z,22.87
2018-05-23T12:54:11.697Z,23.23
2018-05-23T12:57:15.815Z,23.37
2018-05-23T13:00:19.832Z,23.59
2018-05-23T13:03:23.937Z,23.17
2018-05-23T13:06:27.128Z,22.80
2018-05-23T13:09:31.148Z,22.96
2018-05-23T13:12:35.230Z,23.10
2018-05-23T13:15:38.450Z,23.38
2018-05-23T13:18:42.584Z,23.56
2018-05-23T13:21:46.750Z,23.86
2018-05-23T13:24:50.048Z,24.00
2018-05-23T13:27:53.310Z,23.44
2018-05-23T13:30:57.444Z,23.33
2018-05-23T13:34:01.756Z,23.84
2018-05-23T13:37:05.473Z,24.08
2018-05-23T13:40:08.730Z,23.93
2018-05-23T13:43:12.774Z,23.68
2018-05-23T13:46:16.142Z,23.94
2018-05-23T13:49:20.183Z,24.03
2018-05-23T13:52:23.462Z,24.00
2018-05-23T13:55:27.641Z,24.04
2018-05-23T13:58:30.945Z,24.26
2018-05-23T14:01:34.314Z,23.76
2018-05-23T14:04:37.606Z,24.20
2018-05-23T14:07:40.889Z,24.60
2018-05-23T14:10:44.168Z,23.99
2018-05-23T14:13:48.227Z,24.39
2018-05-23T14:16:51.522Z,24.38
2018-05-23T14:19:54.781Z,24.84
2018-05-23T14:22:58.913Z,24.59
2018-05-23T14:26:03.024Z,24.53
2018-05-23T14:29:07.244Z,24.90
2018-05-23T14:32:10.554Z,24.97
2018-05-23T14:35:13.813Z,24.84
2018-05-23T14:38:17.139Z,24.34
2018-05-23T14:41:20.398Z,23.93
2018-05-23T14:44:23.731Z,23.27
2018-05-23T14:47:27.789Z,23.36
2018-05-23T14:50:32.578Z,23.22
2018-05-23T14:53:36.613Z,22.95
2018-05-23T14:56:39.902Z,23.00
2018-05-23T14:59:44.227Z,22.75
2018-05-23T15:02:47.486Z,22.78
2018-05-23T15:05:50.758Z,23.06
2018-05-23T15:08:54.280Z,22.73
2018-05-23T15:11:57.624Z,22.82
2018-05-23T15:15:00.913Z,22.95
2018-05-23T15:18:04.258Z,22.81
2018-05-23T15:21:07.527Z,22.75
2018-05-23T15:24:10.949Z,23.06
2018-05-23T15:27:14.417Z,22.71
2018-05-23T15:30:17.598Z,22.82
2018-05-23T15:33:21.627Z,22.73
2018-05-23T15:36:24.911Z,22.64
2018-05-23T15:39:28.941Z,22.62
2018-05-23T15:42:32.218Z,22.54
2018-05-23T15:45:36.239Z,22.54
2018-05-23T15:48:40.297Z,22.52
2018-05-23T15:51:43.516Z,22.61
2018-05-23T15:54:47.622Z,22.53
2018-05-23T15:57:50.902Z,22.46
2018-05-23T16:00:54.173Z,22.61
2018-05-23T16:03:57.429Z,22.60
2018-05-23T16:07:00.761Z,22.55
2018-05-23T16:10:04.160Z,22.72
2018-05-23T16:13:08.189Z,22.71
2018-05-23T16:16:11.442Z,22.92
2018-05-23T16:19:16.259Z,23.04
2018-05-23T16:22:19.537Z,22.72
2018-05-23T16:25:22.899Z,22.47
2018-05-23T16:28:26.924Z,22.86
2018-05-23T16:31:30.181Z,22.82
2018-05-23T16:34:34.341Z,22.99
2018-05-23T16:37:37.637Z,22.49
2018-05-23T16:40:40.902Z,22.73
2018-05-23T16:43:44.184Z,22.75
2018-05-23T16:46:47.496Z,22.24
2018-05-23T16:49:51.201Z,22.07
2018-05-23T16:52:54.545Z,22.06
2018-05-23T16:55:57.828Z,22.01
2018-05-23T16:59:02.050Z,21.97
2018-05-23T17:02:06.317Z,21.87
2018-05-23T17:05:09.573Z,21.83
2018-05-23T17:08:12.865Z,21.83
2018-05-23T17:11:16.265Z,21.74
2018-05-23T17:14:19.535Z,21.76
2018-05-23T17:17:22.822Z,21.76
2018-05-23T17:20:26.219Z,21.73
2018-05-23T17:23:29.552Z,21.66
2018-05-23T17:26:33.671Z,21.83
2018-05-23T17:29:37.784Z,21.83
2018-05-23T17:32:41.813Z,21.89
2018-05-23T17:35:45.085Z,21.89
2018-05-23T17:38:49.334Z,21.67
2018-05-23T17:41:52.633Z,20.98
2018-05-23T17:44:55.996Z,20.58
2018-05-23T17:47:59.471Z,20.32
2018-05-23T17:51:02.816Z,19.85
2018-05-23T17:54:06.935Z,19.48
2018-05-23T17:57:10.992Z,19.19
2018-05-23T18:00:14.372Z,18.83
2018-05-23T18:03:17.814Z,18.43
2018-05-23T18:06:21.084Z,17.99
2018-05-23T18:09:24.391Z,17.66
2018-05-23T18:12:27.753Z,17.36
2018-05-23T18:15:32.630Z,17.28
2018-05-23T18:18:36.046Z,17.15
2018-05-23T18:21:39.442Z,16.81
2018-05-23T18:24:42.758Z,16.70
2018-05-23T18:27:46.094Z,16.54
2018-05-23T18:30:50.124Z,16.44
2018-05-23T18:33:53.854Z,16.51
2018-05-23T18:36:57.153Z,16.48
2018-05-23T18:40:00.408Z,16.48
2018-05-23T18:43:04.613Z,16.40
2018-05-23T18:46:07.881Z,16.57
2018-05-23T18:49:11.330Z,16.50
2018-05-23T18:52:15.348Z,16.63
2018-05-23T18:55:19.398Z,16.64
2018-05-23T18:58:22.658Z,16.56
2018-05-23T19:01:26.675Z,16.57
2018-05-23T19:04:30.696Z,16.54
2018-05-23T19:07:33.950Z,16.52
2018-05-23T19:10:37.219Z,16.43
2018-05-23T19:13:40.481Z,16.44
2018-05-23T19:16:44.523Z,16.41
2018-05-23T19:19:48.097Z,16.35
2018-05-23T19:22:51.331Z,16.36
2018-05-23T19:25:54.816Z,16.28
2018-05-23T19:28:58.104Z,16.37
2018-05-23T19:32:02.118Z,16.28
2018-05-23T19:35:05.383Z,16.28
2018-05-23T19:38:08.645Z,16.31
2018-05-23T19:41:12.001Z,16.30
2018-05-23T19:44:16.030Z,16.33
2018-05-23T19:47:19.345Z,16.37
2018-05-23T19:50:23.430Z,16.40
2018-05-23T19:53:27.530Z,16.34
2018-05-23T19:56:30.832Z,16.33
2018-05-23T19:59:34.134Z,16.31
2018-05-23T20:02:38.149Z,16.30
2018-05-23T20:05:42.191Z,16.26
2018-05-23T20:08:45.455Z,16.18
2018-05-23T20:11:48.701Z,15.92
2018-05-23T20:14:51.961Z,15.98
2018-05-23T20:17:55.978Z,16.04
2018-05-23T20:21:00.024Z,16.05
2018-05-23T20:24:03.302Z,15.82
2018-05-23T20:27:06.581Z,15.93
2018-05-23T20:30:10.703Z,15.98
2018-05-23T20:33:14.742Z,16.02
2018-05-23T20:36:17.995Z,16.18
2018-05-23T20:39:21.254Z,16.09
2018-05-23T20:42:24.518Z,16.07
2018-05-23T20:45:27.782Z,16.21
2018-05-23T20:48:31.829Z,15.91
2018-05-23T20:51:35.974Z,15.95
2018-05-23T20:54:39.251Z,15.95
2018-05-23T20:57:42.527Z,16.02
2018-05-23T21:00:46.560Z,16.06
2018-05-23T21:03:49.857Z,16.08
2018-05-23T21:06:53.151Z,16.05
2018-05-23T21:09:58.023Z,16.15
2018-05-23T21:13:01.413Z,15.95
2018-05-23T21:16:04.735Z,16.06
2018-05-23T21:19:08.537Z,16.09
2018-05-23T21:22:11.797Z,16.04
2018-05-23T21:25:15.066Z,16.06
2018-05-23T21:28:18.313Z,16.22
2018-05-23T21:31:22.139Z,16.14
2018-05-23T21:34:26.760Z,16.12
2018-05-23T21:37:30.026Z,16.04
2018-05-23T21:40:33.285Z,16.03
2018-05-23T21:43:36.549Z,16.06
2018-05-23T21:46:39.847Z,16.16
2018-05-23T21:49:43.123Z,16.25
2018-05-23T21:52:46.410Z,16.25
2018-05-23T21:55:50.470Z,16.22
2018-05-23T21:58:53.730Z,16.12
2018-05-23T22:01:57.746Z,16.06
2018-05-23T22:05:01.005Z,16.01
2018-05-23T22:08:04.250Z,16.08
2018-05-23T22:11:07.507Z,15.96
2018-05-23T22:14:11.532Z,15.97
2018-05-23T22:17:15.554Z,15.97
2018-05-23T22:20:19.778Z,16.01
2018-05-23T22:23:23.819Z,16.02
2018-05-23T22:26:27.092Z,15.99
2018-05-23T22:29:30.373Z,15.94
2018-05-23T22:32:34.430Z,15.87
2018-05-23T22:35:37.704Z,15.85
2018-05-23T22:38:40.962Z,15.83
2018-05-23T22:41:44.224Z,15.77
2018-05-23T22:44:47.698Z,15.77
2018-05-23T22:47:51.807Z,15.70
2018-05-23T22:50:55.838Z,15.74
2018-05-23T22:53:59.141Z,15.81
2018-05-23T22:57:02.401Z,15.82
2018-05-23T23:00:05.664Z,15.71
2018-05-23T23:03:09.007Z,15.68
2018-05-23T23:06:13.046Z,15.64
2018-05-23T23:09:16.305Z,15.47
2018-05-23T23:12:19.628Z,15.45
2018-05-23T23:15:23.650Z,15.42
2018-05-23T23:18:26.898Z,15.40
2018-05-23T23:21:30.173Z,15.39
2018-05-23T23:24:33.414Z,15.39
2018-05-23T23:27:37.440Z,15.34
2018-05-23T23:30:41.534Z,15.34
2018-05-23T23:33:46.531Z,15.31
2018-05-23T23:36:49.844Z,15.24
2018-05-23T23:39:53.086Z,15.15
2018-05-23T23:42:57.121Z,15.21
2018-05-23T23:46:00.373Z,15.17
2018-05-23T23:49:03.626Z,15.13
2018-05-23T23:52:06.890Z,15.13
2018-05-23T23:55:11.016Z,15.00
2018-05-23T23:58:15.051Z,14.91
